sensor_id;sensor_type;location;lat;lon;timestamp;temperature;humidity
5647;DHT22;2845;48.626;9.362;2023-04-28T00:01:48;9.70;99.50
5647;DHT22;2845;48.626;9.362;2023-04-28T00:04:23;9.80;99.30
5647;DHT22;2845;48.626;9.362;2023-04-28T00:06:58;9.80;99.20
5647;DHT22;2845;48.626;9.362;2023-04-28T00:09:32;9.90;99.30
5647;DHT22;2845;48.626;9.362;2023-04-28T00:12:07;9.90;99.20
5647;DHT22;2845;48.626;9.362;2023-04-28T00:14:41;9.90;99.30
5647;DHT22;2845;48.626;9.362;2023-04-28T00:17:15;11.00;99.30
5647;DHT22;2845;48.626;9.362;2023-04-28T00:19:50;9.90;99.00
5647;DHT22;2845;48.626;9.362;2023-04-28T00:22:24;12.30;99.60
5647;DHT22;2845;48.626;9.362;2023-04-28T00:24:58;9.90;99.30
5647;DHT22;2845;48.626;9.362;2023-04-28T00:27:34;10.00;99.20
5647;DHT22;2845;48.626;9.362;2023-04-28T00:30:09;10.00;99.10
5647;DHT22;2845;48.626;9.362;2023-04-28T00:32:44;10.00;99.20
5647;DHT22;2845;48.626;9.362;2023-04-28T00:35:18;10.00;99.40
5647;DHT22;2845;48.626;9.362;2023-04-28T00:37:53;9.90;99.60
5647;DHT22;2845;48.626;9.362;2023-04-28T00:40:32;11.50;99.90
5647;DHT22;2845;48.626;9.362;2023-04-28T00:43:07;10.00;99.90
5647;DHT22;2845;48.626;9.362;2023-04-28T00:45:41;10.00;99.90
5647;DHT22;2845;48.626;9.362;2023-04-28T00:48:16;10.00;99.90
5647;DHT22;2845;48.626;9.362;2023-04-28T00:50:51;11.50;99.90
5647;DHT22;2845;48.626;9.362;2023-04-28T00:53:25;10.10;99.90
5647;DHT22;2845;48.626;9.362;2023-04-28T00:56:00;9.90;99.90
5647;DHT22;2845;48.626;9.362;2023-04-28T00:58:36;10.00;99.90
5647;DHT22;2845;48.626;9.362;2023-04-28T01:01:10;10.00;99.90
5647;DHT22;2845;48.626;9.362;2023-04-28T01:03:44;10.00;99.90
5647;DHT22;2845;48.626;9.362;2023-04-28T01:06:19;10.10;99.90
5647;DHT22;2845;48.626;9.362;2023-04-28T01:08:55;10.00;99.90
5647;DHT22;2845;48.626;9.362;2023-04-28T01:11:29;10.00;99.90
5647;DHT22;2845;48.626;9.362;2023-04-28T01:14:04;9.90;99.90
5647;DHT22;2845;48.626;9.362;2023-04-28T01:16:38;9.90;99.90
5647;DHT22;2845;48.626;9.362;2023-04-28T01:19:18;10.40;99.90
5647;DHT22;2845;48.626;9.362;2023-04-28T01:21:55;9.90;99.90
5647;DHT22;2845;48.626;9.362;2023-04-28T01:24:30;9.90;99.90
5647;DHT22;2845;48.626;9.362;2023-04-28T01:27:04;9.90;99.90
5647;DHT22;2845;48.626;9.362;2023-04-28T01:29:38;9.90;99.90
5647;DHT22;2845;48.626;9.362;2023-04-28T01:32:13;9.90;99.90
5647;DHT22;2845;48.626;9.362;2023-04-28T01:34:47;10.70;99.90
5647;DHT22;2845;48.626;9.362;2023-04-28T01:37:24;10.00;99.90
5647;DHT22;2845;48.626;9.362;2023-04-28T01:39:59;10.00;99.90
5647;DHT22;2845;48.626;9.362;2023-04-28T01:42:33;10.00;99.90
5647;DHT22;2845;48.626;9.362;2023-04-28T01:45:08;10.00;99.90
5647;DHT22;2845;48.626;9.362;2023-04-28T01:47:43;10.10;99.90
5647;DHT22;2845;48.626;9.362;2023-04-28T01:50:17;10.00;99.90
5647;DHT22;2845;48.626;9.362;2023-04-28T01:52:52;10.00;99.90
5647;DHT22;2845;48.626;9.362;2023-04-28T01:55:27;10.00;99.90
5647;DHT22;2845;48.626;9.362;2023-04-28T01:58:02;10.10;99.90
5647;DHT22;2845;48.626;9.362;2023-04-28T02:00:36;10.10;99.90
5647;DHT22;2845;48.626;9.362;2023-04-28T02:03:10;10.10;99.90
5647;DHT22;2845;48.626;9.362;2023-04-28T02:05:44;10.10;99.90
5647;DHT22;2845;48.626;9.362;2023-04-28T02:08:19;10.10;99.90
5647;DHT22;2845;48.626;9.362;2023-04-28T02:10:54;10.90;99.90
5647;DHT22;2845;48.626;9.362;2023-04-28T02:13:29;10.00;99.90
5647;DHT22;2845;48.626;9.362;2023-04-28T02:16:04;10.00;99.90
5647;DHT22;2845;48.626;9.362;2023-04-28T02:18:38;10.10;99.90
5647;DHT22;2845;48.626;9.362;2023-04-28T02:21:13;10.10;99.90
5647;DHT22;2845;48.626;9.362;2023-04-28T02:23:47;10.00;99.90
5647;DHT22;2845;48.626;9.362;2023-04-28T02:26:24;10.10;99.90
5647;DHT22;2845;48.626;9.362;2023-04-28T02:28:58;10.20;99.90
5647;DHT22;2845;48.626;9.362;2023-04-28T02:31:32;10.20;99.90
5647;DHT22;2845;48.626;9.362;2023-04-28T02:34:07;11.60;99.90
5647;DHT22;2845;48.626;9.362;2023-04-28T02:36:41;12.30;99.90
5647;DHT22;2845;48.626;9.362;2023-04-28T02:39:15;10.20;99.90
5647;DHT22;2845;48.626;9.362;2023-04-28T02:41:50;10.20;99.90
5647;DHT22;2845;48.626;9.362;2023-04-28T02:44:25;11.20;99.90
5647;DHT22;2845;48.626;9.362;2023-04-28T02:46:59;10.20;99.90
5647;DHT22;2845;48.626;9.362;2023-04-28T02:49:33;10.30;99.90
5647;DHT22;2845;48.626;9.362;2023-04-28T02:52:07;10.70;99.90
5647;DHT22;2845;48.626;9.362;2023-04-28T02:54:41;11.10;99.90
5647;DHT22;2845;48.626;9.362;2023-04-28T02:57:17;10.30;99.90
5647;DHT22;2845;48.626;9.362;2023-04-28T02:59:51;10.30;99.90
5647;DHT22;2845;48.626;9.362;2023-04-28T03:02:26;10.30;99.90
5647;DHT22;2845;48.626;9.362;2023-04-28T03:05:00;10.30;99.90
5647;DHT22;2845;48.626;9.362;2023-04-28T03:07:34;10.30;99.90
5647;DHT22;2845;48.626;9.362;2023-04-28T03:10:09;10.30;99.90
5647;DHT22;2845;48.626;9.362;2023-04-28T03:12:44;10.30;99.90
5647;DHT22;2845;48.626;9.362;2023-04-28T03:15:18;10.30;99.90
5647;DHT22;2845;48.626;9.362;2023-04-28T03:17:53;12.40;99.90
5647;DHT22;2845;48.626;9.362;2023-04-28T03:20:27;10.30;99.90
5647;DHT22;2845;48.626;9.362;2023-04-28T03:23:01;10.30;99.90
5647;DHT22;2845;48.626;9.362;2023-04-28T03:25:36;11.40;99.90
5647;DHT22;2845;48.626;9.362;2023-04-28T03:28:11;10.30;99.90
5647;DHT22;2845;48.626;9.362;2023-04-28T03:30:45;10.30;99.90
5647;DHT22;2845;48.626;9.362;2023-04-28T03:33:19;10.30;99.90
5647;DHT22;2845;48.626;9.362;2023-04-28T03:35:54;10.40;99.90
5647;DHT22;2845;48.626;9.362;2023-04-28T03:38:28;10.40;99.90
5647;DHT22;2845;48.626;9.362;2023-04-28T03:41:02;10.80;99.90
5647;DHT22;2845;48.626;9.362;2023-04-28T03:43:37;10.30;99.90
5647;DHT22;2845;48.626;9.362;2023-04-28T03:46:11;10.70;99.90
5647;DHT22;2845;48.626;9.362;2023-04-28T03:48:46;10.40;99.90
5647;DHT22;2845;48.626;9.362;2023-04-28T03:51:20;10.40;99.90
5647;DHT22;2845;48.626;9.362;2023-04-28T03:53:54;10.40;99.90
5647;DHT22;2845;48.626;9.362;2023-04-28T03:56:29;10.40;99.90
5647;DHT22;2845;48.626;9.362;2023-04-28T03:59:04;9.80;99.90
5647;DHT22;2845;48.626;9.362;2023-04-28T04:01:38;10.50;99.90
5647;DHT22;2845;48.626;9.362;2023-04-28T04:04:12;10.50;99.90
5647;DHT22;2845;48.626;9.362;2023-04-28T04:06:47;10.50;99.90
5647;DHT22;2845;48.626;9.362;2023-04-28T04:09:21;10.50;99.90
5647;DHT22;2845;48.626;9.362;2023-04-28T04:11:56;10.50;99.90
5647;DHT22;2845;48.626;9.362;2023-04-28T04:14:31;10.50;99.90
5647;DHT22;2845;48.626;9.362;2023-04-28T04:17:06;10.50;99.90
5647;DHT22;2845;48.626;9.362;2023-04-28T04:19:40;11.00;99.90
5647;DHT22;2845;48.626;9.362;2023-04-28T04:22:14;10.60;99.90
5647;DHT22;2845;48.626;9.362;2023-04-28T04:24:48;10.50;99.90
5647;DHT22;2845;48.626;9.362;2023-04-28T04:27:23;10.50;99.90
5647;DHT22;2845;48.626;9.362;2023-04-28T04:29:59;11.80;99.90
5647;DHT22;2845;48.626;9.362;2023-04-28T04:32:34;12.40;99.90
5647;DHT22;2845;48.626;9.362;2023-04-28T04:35:08;10.60;99.90
5647;DHT22;2845;48.626;9.362;2023-04-28T04:37:43;10.60;99.90
5647;DHT22;2845;48.626;9.362;2023-04-28T04:40:17;10.60;99.90
5647;DHT22;2845;48.626;9.362;2023-04-28T04:42:51;10.60;99.90
5647;DHT22;2845;48.626;9.362;2023-04-28T04:45:27;9.00;99.90
5647;DHT22;2845;48.626;9.362;2023-04-28T04:48:03;10.60;99.90
5647;DHT22;2845;48.626;9.362;2023-04-28T04:50:40;10.70;99.90
5647;DHT22;2845;48.626;9.362;2023-04-28T04:53:15;10.70;99.90
5647;DHT22;2845;48.626;9.362;2023-04-28T04:55:49;10.80;99.90
5647;DHT22;2845;48.626;9.362;2023-04-28T04:58:24;11.20;99.90
5647;DHT22;2845;48.626;9.362;2023-04-28T05:01:00;10.80;99.90
5647;DHT22;2845;48.626;9.362;2023-04-28T05:03:34;10.90;99.90
5647;DHT22;2845;48.626;9.362;2023-04-28T05:06:09;10.80;99.90
5647;DHT22;2845;48.626;9.362;2023-04-28T05:08:44;11.90;99.90
5647;DHT22;2845;48.626;9.362;2023-04-28T05:11:19;10.80;99.90
5647;DHT22;2845;48.626;9.362;2023-04-28T05:13:53;10.90;99.90
5647;DHT22;2845;48.626;9.362;2023-04-28T05:16:30;10.80;99.90
5647;DHT22;2845;48.626;9.362;2023-04-28T05:19:05;11.60;99.90
5647;DHT22;2845;48.626;9.362;2023-04-28T05:21:40;10.90;99.90
5647;DHT22;2845;48.626;9.362;2023-04-28T05:24:16;10.90;99.90
5647;DHT22;2845;48.626;9.362;2023-04-28T05:26:57;10.90;99.90
5647;DHT22;2845;48.626;9.362;2023-04-28T05:29:32;11.00;99.90
5647;DHT22;2845;48.626;9.362;2023-04-28T05:32:07;11.60;99.90
5647;DHT22;2845;48.626;9.362;2023-04-28T05:34:42;11.00;99.90
5647;DHT22;2845;48.626;9.362;2023-04-28T05:37:16;11.10;99.90
5647;DHT22;2845;48.626;9.362;2023-04-28T05:39:50;11.10;99.90
5647;DHT22;2845;48.626;9.362;2023-04-28T05:42:25;11.10;99.90
5647;DHT22;2845;48.626;9.362;2023-04-28T05:45:00;11.10;99.90
5647;DHT22;2845;48.626;9.362;2023-04-28T05:47:36;11.20;99.90
5647;DHT22;2845;48.626;9.362;2023-04-28T05:50:10;11.60;99.90
5647;DHT22;2845;48.626;9.362;2023-04-28T05:52:44;12.50;99.90
5647;DHT22;2845;48.626;9.362;2023-04-28T05:55:19;11.20;99.90
5647;DHT22;2845;48.626;9.362;2023-04-28T05:57:53;11.20;99.90
5647;DHT22;2845;48.626;9.362;2023-04-28T06:00:28;11.20;99.90
5647;DHT22;2845;48.626;9.362;2023-04-28T06:03:06;11.20;99.90
5647;DHT22;2845;48.626;9.362;2023-04-28T06:05:43;11.30;99.90
5647;DHT22;2845;48.626;9.362;2023-04-28T06:08:18;11.30;99.90
5647;DHT22;2845;48.626;9.362;2023-04-28T06:10:52;12.70;99.90
5647;DHT22;2845;48.626;9.362;2023-04-28T06:13:29;11.60;99.90
5647;DHT22;2845;48.626;9.362;2023-04-28T06:16:03;11.40;99.90
5647;DHT22;2845;48.626;9.362;2023-04-28T06:18:39;11.40;99.90
5647;DHT22;2845;48.626;9.362;2023-04-28T06:21:15;11.40;99.90
5647;DHT22;2845;48.626;9.362;2023-04-28T06:23:49;11.40;99.90
5647;DHT22;2845;48.626;9.362;2023-04-28T06:26:24;11.40;99.90
5647;DHT22;2845;48.626;9.362;2023-04-28T06:28:58;11.50;99.90
5647;DHT22;2845;48.626;9.362;2023-04-28T06:31:32;11.50;99.90
5647;DHT22;2845;48.626;9.362;2023-04-28T06:34:08;11.60;99.90
5647;DHT22;2845;48.626;9.362;2023-04-28T06:36:42;13.10;99.90
5647;DHT22;2845;48.626;9.362;2023-04-28T06:39:16;11.70;99.90
5647;DHT22;2845;48.626;9.362;2023-04-28T06:41:50;11.80;99.90
5647;DHT22;2845;48.626;9.362;2023-04-28T06:44:24;11.80;99.90
5647;DHT22;2845;48.626;9.362;2023-04-28T06:46:58;11.80;99.90
5647;DHT22;2845;48.626;9.362;2023-04-28T06:49:34;11.90;99.90
5647;DHT22;2845;48.626;9.362;2023-04-28T06:52:08;11.90;99.90
5647;DHT22;2845;48.626;9.362;2023-04-28T06:54:43;12.10;99.90
5647;DHT22;2845;48.626;9.362;2023-04-28T06:57:18;11.90;99.90
5647;DHT22;2845;48.626;9.362;2023-04-28T06:59:53;12.00;99.90
5647;DHT22;2845;48.626;9.362;2023-04-28T07:02:28;12.00;99.90
5647;DHT22;2845;48.626;9.362;2023-04-28T07:05:05;12.00;99.90
5647;DHT22;2845;48.626;9.362;2023-04-28T07:07:40;12.00;99.90
5647;DHT22;2845;48.626;9.362;2023-04-28T07:10:14;12.70;99.90
5647;DHT22;2845;48.626;9.362;2023-04-28T07:12:49;12.00;99.90
5647;DHT22;2845;48.626;9.362;2023-04-28T07:15:24;12.00;99.90
5647;DHT22;2845;48.626;9.362;2023-04-28T07:17:58;12.50;99.90
5647;DHT22;2845;48.626;9.362;2023-04-28T07:20:34;12.00;99.90
5647;DHT22;2845;48.626;9.362;2023-04-28T07:23:08;12.10;99.90
5647;DHT22;2845;48.626;9.362;2023-04-28T07:25:42;12.20;99.90
5647;DHT22;2845;48.626;9.362;2023-04-28T07:28:16;13.20;99.90
5647;DHT22;2845;48.626;9.362;2023-04-28T07:30:52;12.30;99.90
5647;DHT22;2845;48.626;9.362;2023-04-28T07:33:26;13.00;99.90
5647;DHT22;2845;48.626;9.362;2023-04-28T07:36:02;12.40;99.90
5647;DHT22;2845;48.626;9.362;2023-04-28T07:38:36;15.20;99.90
5647;DHT22;2845;48.626;9.362;2023-04-28T07:41:10;12.50;99.90
5647;DHT22;2845;48.626;9.362;2023-04-28T07:43:44;12.50;99.90
5647;DHT22;2845;48.626;9.362;2023-04-28T07:46:19;12.60;99.90
5647;DHT22;2845;48.626;9.362;2023-04-28T07:48:54;12.60;99.90
5647;DHT22;2845;48.626;9.362;2023-04-28T07:51:30;12.50;99.90
5647;DHT22;2845;48.626;9.362;2023-04-28T07:54:04;12.50;99.90
5647;DHT22;2845;48.626;9.362;2023-04-28T07:56:39;12.60;99.90
5647;DHT22;2845;48.626;9.362;2023-04-28T07:59:13;12.60;99.90
5647;DHT22;2845;48.626;9.362;2023-04-28T08:01:47;12.50;99.90
5647;DHT22;2845;48.626;9.362;2023-04-28T08:04:22;12.60;99.90
5647;DHT22;2845;48.626;9.362;2023-04-28T08:06:59;12.60;99.90
5647;DHT22;2845;48.626;9.362;2023-04-28T08:09:33;12.60;99.90
5647;DHT22;2845;48.626;9.362;2023-04-28T08:12:07;12.60;99.90
5647;DHT22;2845;48.626;9.362;2023-04-28T08:14:42;12.60;99.90
5647;DHT22;2845;48.626;9.362;2023-04-28T08:17:16;13.50;99.90
5647;DHT22;2845;48.626;9.362;2023-04-28T08:19:50;12.60;99.90
5647;DHT22;2845;48.626;9.362;2023-04-28T08:22:27;11.90;99.90
5647;DHT22;2845;48.626;9.362;2023-04-28T08:25:01;12.50;99.90
5647;DHT22;2845;48.626;9.362;2023-04-28T08:27:35;12.50;99.90
5647;DHT22;2845;48.626;9.362;2023-04-28T08:30:12;12.40;99.90
5647;DHT22;2845;48.626;9.362;2023-04-28T08:32:46;12.40;99.90
5647;DHT22;2845;48.626;9.362;2023-04-28T08:35:20;12.90;99.90
5647;DHT22;2845;48.626;9.362;2023-04-28T08:37:56;12.30;99.90
5647;DHT22;2845;48.626;9.362;2023-04-28T08:40:31;12.40;99.90
5647;DHT22;2845;48.626;9.362;2023-04-28T08:43:06;12.40;99.90
5647;DHT22;2845;48.626;9.362;2023-04-28T08:45:42;12.50;99.90
5647;DHT22;2845;48.626;9.362;2023-04-28T08:48:20;12.50;99.90
5647;DHT22;2845;48.626;9.362;2023-04-28T08:50:55;12.60;99.90
5647;DHT22;2845;48.626;9.362;2023-04-28T08:53:36;12.60;99.90
5647;DHT22;2845;48.626;9.362;2023-04-28T08:56:32;12.60;99.90
5647;DHT22;2845;48.626;9.362;2023-04-28T08:59:07;12.80;99.90
5647;DHT22;2845;48.626;9.362;2023-04-28T09:01:41;12.90;99.90
5647;DHT22;2845;48.626;9.362;2023-04-28T09:04:16;13.00;99.90
5647;DHT22;2845;48.626;9.362;2023-04-28T09:06:51;13.10;99.90
5647;DHT22;2845;48.626;9.362;2023-04-28T09:09:28;13.10;99.90
5647;DHT22;2845;48.626;9.362;2023-04-28T09:12:10;13.20;99.90
5647;DHT22;2845;48.626;9.362;2023-04-28T09:14:44;13.30;99.90
5647;DHT22;2845;48.626;9.362;2023-04-28T09:17:18;13.30;99.90
5647;DHT22;2845;48.626;9.362;2023-04-28T09:19:52;13.40;99.90
5647;DHT22;2845;48.626;9.362;2023-04-28T09:22:27;13.60;99.90
5647;DHT22;2845;48.626;9.362;2023-04-28T09:25:11;13.40;99.90
5647;DHT22;2845;48.626;9.362;2023-04-28T09:27:46;13.50;99.90
5647;DHT22;2845;48.626;9.362;2023-04-28T09:30:37;13.60;99.90
5647;DHT22;2845;48.626;9.362;2023-04-28T09:33:13;14.10;99.90
5647;DHT22;2845;48.626;9.362;2023-04-28T09:35:47;13.60;99.90
5647;DHT22;2845;48.626;9.362;2023-04-28T09:38:22;13.60;99.90
5647;DHT22;2845;48.626;9.362;2023-04-28T09:40:59;13.70;99.90
5647;DHT22;2845;48.626;9.362;2023-04-28T09:43:35;13.70;99.90
5647;DHT22;2845;48.626;9.362;2023-04-28T09:46:09;13.80;99.90
5647;DHT22;2845;48.626;9.362;2023-04-28T09:48:44;13.90;99.90
5647;DHT22;2845;48.626;9.362;2023-04-28T09:51:20;14.00;99.90
5647;DHT22;2845;48.626;9.362;2023-04-28T09:53:55;14.20;99.90
5647;DHT22;2845;48.626;9.362;2023-04-28T09:56:34;14.40;99.90
5647;DHT22;2845;48.626;9.362;2023-04-28T09:59:12;14.70;99.90
5647;DHT22;2845;48.626;9.362;2023-04-28T10:01:48;14.90;99.90
5647;DHT22;2845;48.626;9.362;2023-04-28T10:04:22;15.20;99.90
5647;DHT22;2845;48.626;9.362;2023-04-28T10:06:57;15.40;99.90
5647;DHT22;2845;48.626;9.362;2023-04-28T10:09:33;15.50;99.90
5647;DHT22;2845;48.626;9.362;2023-04-28T10:12:09;15.70;99.90
5647;DHT22;2845;48.626;9.362;2023-04-28T10:14:43;15.90;99.90
5647;DHT22;2845;48.626;9.362;2023-04-28T10:17:18;16.30;99.90
5647;DHT22;2845;48.626;9.362;2023-04-28T10:19:53;16.60;99.90
5647;DHT22;2845;48.626;9.362;2023-04-28T10:22:44;16.80;99.90
5647;DHT22;2845;48.626;9.362;2023-04-28T10:25:27;17.00;99.90
5647;DHT22;2845;48.626;9.362;2023-04-28T10:28:06;17.10;99.90
5647;DHT22;2845;48.626;9.362;2023-04-28T10:30:41;17.20;99.90
5647;DHT22;2845;48.626;9.362;2023-04-28T10:33:24;18.10;99.90
5647;DHT22;2845;48.626;9.362;2023-04-28T10:36:00;17.40;99.90
5647;DHT22;2845;48.626;9.362;2023-04-28T10:39:08;17.40;99.90
5647;DHT22;2845;48.626;9.362;2023-04-28T10:41:44;17.50;99.90
5647;DHT22;2845;48.626;9.362;2023-04-28T10:44:41;15.50;99.60
5647;DHT22;2845;48.626;9.362;2023-04-28T10:47:16;17.70;99.60
5647;DHT22;2845;48.626;9.362;2023-04-28T10:50:09;17.80;99.90
5647;DHT22;2845;48.626;9.362;2023-04-28T10:52:47;17.70;99.60
5647;DHT22;2845;48.626;9.362;2023-04-28T10:55:32;17.70;99.90
5647;DHT22;2845;48.626;9.362;2023-04-28T10:58:30;17.70;99.90
5647;DHT22;2845;48.626;9.362;2023-04-28T11:01:28;17.90;99.90
5647;DHT22;2845;48.626;9.362;2023-04-28T11:04:05;18.00;99.70
5647;DHT22;2845;48.626;9.362;2023-04-28T11:06:44;18.20;99.70
5647;DHT22;2845;48.626;9.362;2023-04-28T11:09:45;18.40;99.00
5647;DHT22;2845;48.626;9.362;2023-04-28T11:12:21;18.50;98.70
5647;DHT22;2845;48.626;9.362;2023-04-28T11:14:55;15.50;97.30
5647;DHT22;2845;48.626;9.362;2023-04-28T11:17:39;18.50;98.80
5647;DHT22;2845;48.626;9.362;2023-04-28T11:20:14;18.50;98.00
5647;DHT22;2845;48.626;9.362;2023-04-28T11:22:52;18.60;97.70
5647;DHT22;2845;48.626;9.362;2023-04-28T11:25:27;18.60;97.80
5647;DHT22;2845;48.626;9.362;2023-04-28T11:28:02;19.40;98.10
5647;DHT22;2845;48.626;9.362;2023-04-28T11:30:38;19.00;97.30
5647;DHT22;2845;48.626;9.362;2023-04-28T11:33:14;19.00;97.20
5647;DHT22;2845;48.626;9.362;2023-04-28T11:35:48;18.70;97.30
5647;DHT22;2845;48.626;9.362;2023-04-28T11:38:22;21.60;98.30
5647;DHT22;2845;48.626;9.362;2023-04-28T11:40:57;18.30;97.90
5647;DHT22;2845;48.626;9.362;2023-04-28T11:43:31;18.00;98.00
5647;DHT22;2845;48.626;9.362;2023-04-28T11:46:20;17.90;98.60
5647;DHT22;2845;48.626;9.362;2023-04-28T11:49:05;17.60;98.80
5647;DHT22;2845;48.626;9.362;2023-04-28T11:51:39;19.20;99.70
5647;DHT22;2845;48.626;9.362;2023-04-28T11:54:19;17.50;99.40
5647;DHT22;2845;48.626;9.362;2023-04-28T11:56:55;18.70;99.70
5647;DHT22;2845;48.626;9.362;2023-04-28T11:59:30;17.60;99.80
5647;DHT22;2845;48.626;9.362;2023-04-28T12:02:06;17.70;99.60
5647;DHT22;2845;48.626;9.362;2023-04-28T12:04:42;17.80;99.30
5647;DHT22;2845;48.626;9.362;2023-04-28T12:07:18;20.90;99.60
5647;DHT22;2845;48.626;9.362;2023-04-28T12:10:10;18.60;98.70
5647;DHT22;2845;48.626;9.362;2023-04-28T12:12:46;19.00;97.70
5647;DHT22;2845;48.626;9.362;2023-04-28T12:15:38;20.60;97.50
5647;DHT22;2845;48.626;9.362;2023-04-28T12:18:13;19.30;97.20
5647;DHT22;2845;48.626;9.362;2023-04-28T12:20:52;18.60;97.20
5647;DHT22;2845;48.626;9.362;2023-04-28T12:23:30;18.40;97.20
5647;DHT22;2845;48.626;9.362;2023-04-28T12:26:04;18.10;97.30
5647;DHT22;2845;48.626;9.362;2023-04-28T12:28:40;18.00;97.70
5647;DHT22;2845;48.626;9.362;2023-04-28T12:31:14;17.90;98.10
5647;DHT22;2845;48.626;9.362;2023-04-28T12:33:48;17.70;98.00
5647;DHT22;2845;48.626;9.362;2023-04-28T12:36:24;17.60;98.30
5647;DHT22;2845;48.626;9.362;2023-04-28T12:38:58;17.50;98.40
5647;DHT22;2845;48.626;9.362;2023-04-28T12:41:33;17.30;99.10
5647;DHT22;2845;48.626;9.362;2023-04-28T12:44:07;17.30;99.10
5647;DHT22;2845;48.626;9.362;2023-04-28T12:46:41;17.30;99.10
5647;DHT22;2845;48.626;9.362;2023-04-28T12:49:16;17.30;99.10
5647;DHT22;2845;48.626;9.362;2023-04-28T12:51:52;17.50;99.40
5647;DHT22;2845;48.626;9.362;2023-04-28T12:54:26;17.70;99.60
5647;DHT22;2845;48.626;9.362;2023-04-28T12:57:00;18.20;98.90
5647;DHT22;2845;48.626;9.362;2023-04-28T12:59:35;18.60;98.50
5647;DHT22;2845;48.626;9.362;2023-04-28T13:02:09;19.00;97.80
5647;DHT22;2845;48.626;9.362;2023-04-28T13:04:44;19.10;97.00
5647;DHT22;2845;48.626;9.362;2023-04-28T13:07:20;19.20;96.50
5647;DHT22;2845;48.626;9.362;2023-04-28T13:09:55;19.20;96.60
5647;DHT22;2845;48.626;9.362;2023-04-28T13:12:30;19.40;96.10
5647;DHT22;2845;48.626;9.362;2023-04-28T13:15:06;19.60;95.90
5647;DHT22;2845;48.626;9.362;2023-04-28T13:17:42;20.00;95.60
5647;DHT22;2845;48.626;9.362;2023-04-28T13:20:18;20.20;95.40
5647;DHT22;2845;48.626;9.362;2023-04-28T13:22:54;20.30;95.70
5647;DHT22;2845;48.626;9.362;2023-04-28T13:25:28;20.30;95.50
5647;DHT22;2845;48.626;9.362;2023-04-28T13:28:03;20.40;95.20
5647;DHT22;2845;48.626;9.362;2023-04-28T13:30:37;20.30;95.10
5647;DHT22;2845;48.626;9.362;2023-04-28T13:33:11;20.10;95.00
5647;DHT22;2845;48.626;9.362;2023-04-28T13:35:46;20.20;95.00
5647;DHT22;2845;48.626;9.362;2023-04-28T13:38:25;20.30;95.00
5647;DHT22;2845;48.626;9.362;2023-04-28T13:40:59;20.40;94.70
5647;DHT22;2845;48.626;9.362;2023-04-28T13:43:34;20.40;94.70
5647;DHT22;2845;48.626;9.362;2023-04-28T13:46:08;23.10;95.30
5647;DHT22;2845;48.626;9.362;2023-04-28T13:48:43;20.20;94.60
5647;DHT22;2845;48.626;9.362;2023-04-28T13:51:17;20.10;94.70
5647;DHT22;2845;48.626;9.362;2023-04-28T13:53:53;19.90;94.70
5647;DHT22;2845;48.626;9.362;2023-04-28T13:56:27;19.80;94.70
5647;DHT22;2845;48.626;9.362;2023-04-28T13:59:02;19.60;94.90
5647;DHT22;2845;48.626;9.362;2023-04-28T14:01:38;19.40;95.10
5647;DHT22;2845;48.626;9.362;2023-04-28T14:04:12;19.20;95.40
5647;DHT22;2845;48.626;9.362;2023-04-28T14:06:47;19.10;95.70
5647;DHT22;2845;48.626;9.362;2023-04-28T14:09:24;18.90;95.80
5647;DHT22;2845;48.626;9.362;2023-04-28T14:11:58;19.00;96.00
5647;DHT22;2845;48.626;9.362;2023-04-28T14:14:32;19.10;96.10
5647;DHT22;2845;48.626;9.362;2023-04-28T14:17:06;19.20;96.10
5647;DHT22;2845;48.626;9.362;2023-04-28T14:19:41;19.40;96.10
5647;DHT22;2845;48.626;9.362;2023-04-28T14:22:15;19.30;96.10
5647;DHT22;2845;48.626;9.362;2023-04-28T14:24:51;19.50;95.90
5647;DHT22;2845;48.626;9.362;2023-04-28T14:27:26;19.50;95.70
5647;DHT22;2845;48.626;9.362;2023-04-28T14:30:01;19.40;95.80
5647;DHT22;2845;48.626;9.362;2023-04-28T14:32:35;19.20;96.10
5647;DHT22;2845;48.626;9.362;2023-04-28T14:35:12;18.90;96.40
5647;DHT22;2845;48.626;9.362;2023-04-28T14:37:48;18.60;96.50
5647;DHT22;2845;48.626;9.362;2023-04-28T14:40:23;18.40;96.90
5647;DHT22;2845;48.626;9.362;2023-04-28T14:42:58;18.10;97.30
5647;DHT22;2845;48.626;9.362;2023-04-28T14:45:34;18.10;97.60
5647;DHT22;2845;48.626;9.362;2023-04-28T14:48:10;18.50;98.30
5647;DHT22;2845;48.626;9.362;2023-04-28T14:50:45;18.10;98.40
5647;DHT22;2845;48.626;9.362;2023-04-28T14:53:19;18.20;98.50
5647;DHT22;2845;48.626;9.362;2023-04-28T14:55:55;18.30;98.60
5647;DHT22;2845;48.626;9.362;2023-04-28T14:58:49;18.40;98.80
5647;DHT22;2845;48.626;9.362;2023-04-28T15:01:24;18.60;98.70
5647;DHT22;2845;48.626;9.362;2023-04-28T15:03:58;18.60;98.50
5647;DHT22;2845;48.626;9.362;2023-04-28T15:06:33;18.60;98.40
5647;DHT22;2845;48.626;9.362;2023-04-28T15:09:07;18.50;98.20
5647;DHT22;2845;48.626;9.362;2023-04-28T15:11:44;18.40;98.60
5647;DHT22;2845;48.626;9.362;2023-04-28T15:14:18;18.10;98.60
5647;DHT22;2845;48.626;9.362;2023-04-28T15:16:53;18.60;99.00
5647;DHT22;2845;48.626;9.362;2023-04-28T15:19:28;17.80;99.20
5647;DHT22;2845;48.626;9.362;2023-04-28T15:22:03;17.50;99.90
5647;DHT22;2845;48.626;9.362;2023-04-28T15:24:37;17.40;99.90
5647;DHT22;2845;48.626;9.362;2023-04-28T15:27:13;17.30;99.90
5647;DHT22;2845;48.626;9.362;2023-04-28T15:29:47;17.30;99.90
5647;DHT22;2845;48.626;9.362;2023-04-28T15:32:22;17.20;99.90
5647;DHT22;2845;48.626;9.362;2023-04-28T15:34:56;17.70;99.90
5647;DHT22;2845;48.626;9.362;2023-04-28T15:37:39;17.20;99.90
5647;DHT22;2845;48.626;9.362;2023-04-28T15:40:17;17.20;99.90
5647;DHT22;2845;48.626;9.362;2023-04-28T15:42:54;17.20;99.90
5647;DHT22;2845;48.626;9.362;2023-04-28T15:45:29;17.20;99.90
5647;DHT22;2845;48.626;9.362;2023-04-28T15:48:03;17.10;99.90
5647;DHT22;2845;48.626;9.362;2023-04-28T15:50:39;17.00;99.90
5647;DHT22;2845;48.626;9.362;2023-04-28T15:53:13;17.00;99.90
5647;DHT22;2845;48.626;9.362;2023-04-28T15:55:48;16.90;99.90
5647;DHT22;2845;48.626;9.362;2023-04-28T15:58:24;16.90;99.90
5647;DHT22;2845;48.626;9.362;2023-04-28T16:00:59;16.80;99.90
5647;DHT22;2845;48.626;9.362;2023-04-28T16:03:33;16.90;99.90
5647;DHT22;2845;48.626;9.362;2023-04-28T16:06:08;16.70;99.90
5647;DHT22;2845;48.626;9.362;2023-04-28T16:08:42;16.70;99.90
5647;DHT22;2845;48.626;9.362;2023-04-28T16:11:17;16.70;99.90
5647;DHT22;2845;48.626;9.362;2023-04-28T16:13:53;16.60;99.90
5647;DHT22;2845;48.626;9.362;2023-04-28T16:16:27;16.60;99.90
5647;DHT22;2845;48.626;9.362;2023-04-28T16:19:02;16.60;99.90
5647;DHT22;2845;48.626;9.362;2023-04-28T16:21:37;16.50;99.90
5647;DHT22;2845;48.626;9.362;2023-04-28T16:24:11;16.30;99.90
5647;DHT22;2845;48.626;9.362;2023-04-28T16:26:45;16.20;99.90
5647;DHT22;2845;48.626;9.362;2023-04-28T16:29:21;16.20;99.90
5647;DHT22;2845;48.626;9.362;2023-04-28T16:31:55;16.10;99.90
5647;DHT22;2845;48.626;9.362;2023-04-28T16:34:29;16.00;99.90
5647;DHT22;2845;48.626;9.362;2023-04-28T16:37:05;16.00;99.90
5647;DHT22;2845;48.626;9.362;2023-04-28T16:39:40;16.20;99.90
5647;DHT22;2845;48.626;9.362;2023-04-28T16:42:14;16.00;99.90
5647;DHT22;2845;48.626;9.362;2023-04-28T16:44:51;16.00;99.90
5647;DHT22;2845;48.626;9.362;2023-04-28T16:47:25;16.10;99.90
5647;DHT22;2845;48.626;9.362;2023-04-28T16:50:00;16.90;99.90
5647;DHT22;2845;48.626;9.362;2023-04-28T16:52:35;16.30;99.90
5647;DHT22;2845;48.626;9.362;2023-04-28T16:55:09;16.50;99.90
5647;DHT22;2845;48.626;9.362;2023-04-28T16:57:43;16.50;99.90